<?xml version="1.0" encoding="UTF-8" standalone="no" ?>
<gpx xmlns="http://www.topografix.com/GPX/1/1" xmlns:xsi="http://www.w3.org/2001/XMLSchema-instance" xsi:schemaLocation="http://www.topografix.com/GPX/1/1 http://www.topografix.com/GPX/1/1/gpx.xsd" version="1.1" creator="VisuGPX - https://www.visugpx.com">
  <metadata>
    <name>Carantec_Tour_9-23km</name>
    <desc><![CDATA[gnerando idor: 8174953_9307603_9342987]]></desc>
  </metadata>
  <trk>
    <name><![CDATA[Carantec_RecoMixte-9342987]]></name>
    <extensions>
      <line xmlns="http://www.topografix.com/GPX/gpx_style/0/2">
        <color>FF0000</color>
        <width>4</width>
      </line>
    </extensions>
    <trkseg>
      <trkpt lat="48.65449" lon="-3.90243">
        <ele>12</ele>
        <time>2023-10-31T19:34:25Z</time>
      </trkpt>
      <trkpt lat="48.65456" lon="-3.90284">
        <ele>18</ele>
        <time>2023-10-31T19:35:02Z</time>
      </trkpt>
      <trkpt lat="48.65431" lon="-3.90331">
        <ele>32</ele>
        <time>2023-10-31T19:35:56Z</time>
      </trkpt>
      <trkpt lat="48.65404" lon="-3.90433">
        <ele>47</ele>
        <time>2023-10-31T19:37:32Z</time>
      </trkpt>
      <trkpt lat="48.65378" lon="-3.90536">
        <ele>55</ele>
        <time>2023-10-31T19:39:10Z</time>
      </trkpt>
      <trkpt lat="48.65332" lon="-3.90621">
        <ele>59</ele>
        <time>2023-10-31T19:40:46Z</time>
      </trkpt>
      <trkpt lat="48.653" lon="-3.90719">
        <ele>60</ele>
        <time>2023-10-31T19:42:23Z</time>
      </trkpt>
      <trkpt lat="48.65239" lon="-3.90776">
        <ele>60</ele>
        <time>2023-10-31T19:43:58Z</time>
      </trkpt>
      <trkpt lat="48.65228" lon="-3.90884">
        <ele>61</ele>
        <time>2023-10-31T19:45:35Z</time>
      </trkpt>
      <trkpt lat="48.65219" lon="-3.90993">
        <ele>58</ele>
        <time>2023-10-31T19:47:12Z</time>
      </trkpt>
      <trkpt lat="48.65152" lon="-3.91032">
        <ele>55</ele>
        <time>2023-10-31T19:48:47Z</time>
      </trkpt>
      <trkpt lat="48.65086" lon="-3.90985">
        <ele>53</ele>
        <time>2023-10-31T19:50:25Z</time>
      </trkpt>
      <trkpt lat="48.65015" lon="-3.91007">
        <ele>53</ele>
        <time>2023-10-31T19:52:02Z</time>
      </trkpt>
      <trkpt lat="48.64944" lon="-3.91033">
        <ele>53</ele>
        <time>2023-10-31T19:53:39Z</time>
      </trkpt>
      <trkpt lat="48.64874" lon="-3.91061">
        <ele>55</ele>
        <time>2023-10-31T19:55:16Z</time>
      </trkpt>
      <trkpt lat="48.64804" lon="-3.91093">
        <ele>58</ele>
        <time>2023-10-31T19:56:53Z</time>
      </trkpt>
      <trkpt lat="48.64736" lon="-3.91129">
        <ele>59</ele>
        <time>2023-10-31T19:58:29Z</time>
      </trkpt>
      <trkpt lat="48.64664" lon="-3.91148">
        <ele>60</ele>
        <time>2023-10-31T20:00:07Z</time>
      </trkpt>
      <trkpt lat="48.64588" lon="-3.91173">
        <ele>60</ele>
        <time>2023-10-31T20:01:51Z</time>
      </trkpt>
      <trkpt lat="48.64576" lon="-3.91226">
        <ele>61</ele>
        <time>2023-10-31T20:02:40Z</time>
      </trkpt>
      <trkpt lat="48.64505" lon="-3.91251">
        <ele>62</ele>
        <time>2023-10-31T20:04:17Z</time>
      </trkpt>
      <trkpt lat="48.64434" lon="-3.91275">
        <ele>62</ele>
        <time>2023-10-31T20:05:54Z</time>
      </trkpt>
      <trkpt lat="48.64363" lon="-3.91299">
        <ele>61</ele>
        <time>2023-10-31T20:07:31Z</time>
      </trkpt>
      <trkpt lat="48.64291" lon="-3.91322">
        <ele>59</ele>
        <time>2023-10-31T20:09:10Z</time>
      </trkpt>
      <trkpt lat="48.64222" lon="-3.91352">
        <ele>56</ele>
        <time>2023-10-31T20:10:45Z</time>
      </trkpt>
      <trkpt lat="48.64231" lon="-3.9146">
        <ele>59</ele>
        <time>2023-10-31T20:12:21Z</time>
      </trkpt>
      <trkpt lat="48.6425" lon="-3.91566">
        <ele>63</ele>
        <time>2023-10-31T20:13:58Z</time>
      </trkpt>
      <trkpt lat="48.64295" lon="-3.91652">
        <ele>65</ele>
        <time>2023-10-31T20:15:35Z</time>
      </trkpt>
      <trkpt lat="48.64348" lon="-3.91725">
        <ele>66</ele>
        <time>2023-10-31T20:17:11Z</time>
      </trkpt>
      <trkpt lat="48.64384" lon="-3.91821">
        <ele>66</ele>
        <time>2023-10-31T20:18:48Z</time>
      </trkpt>
      <trkpt lat="48.64399" lon="-3.91928">
        <ele>65</ele>
        <time>2023-10-31T20:20:24Z</time>
      </trkpt>
      <trkpt lat="48.64395" lon="-3.92037">
        <ele>63</ele>
        <time>2023-10-31T20:22:01Z</time>
      </trkpt>
      <trkpt lat="48.64384" lon="-3.92145">
        <ele>61</ele>
        <time>2023-10-31T20:23:37Z</time>
      </trkpt>
      <trkpt lat="48.64378" lon="-3.92254">
        <ele>58</ele>
        <time>2023-10-31T20:25:13Z</time>
      </trkpt>
      <trkpt lat="48.64366" lon="-3.92362">
        <ele>56</ele>
        <time>2023-10-31T20:26:50Z</time>
      </trkpt>
      <trkpt lat="48.64369" lon="-3.92471">
        <ele>54</ele>
        <time>2023-10-31T20:28:26Z</time>
      </trkpt>
      <trkpt lat="48.64361" lon="-3.92579">
        <ele>53</ele>
        <time>2023-10-31T20:30:02Z</time>
      </trkpt>
      <trkpt lat="48.64349" lon="-3.92688">
        <ele>51</ele>
        <time>2023-10-31T20:31:40Z</time>
      </trkpt>
      <trkpt lat="48.64354" lon="-3.92798">
        <ele>49</ele>
        <time>2023-10-31T20:33:17Z</time>
      </trkpt>
      <trkpt lat="48.64383" lon="-3.929">
        <ele>46</ele>
        <time>2023-10-31T20:34:55Z</time>
      </trkpt>
      <trkpt lat="48.64427" lon="-3.92987">
        <ele>44</ele>
        <time>2023-10-31T20:36:31Z</time>
      </trkpt>
      <trkpt lat="48.64472" lon="-3.93073">
        <ele>41</ele>
        <time>2023-10-31T20:38:08Z</time>
      </trkpt>
      <trkpt lat="48.64514" lon="-3.93161">
        <ele>39</ele>
        <time>2023-10-31T20:39:44Z</time>
      </trkpt>
      <trkpt lat="48.6454" lon="-3.93265">
        <ele>37</ele>
        <time>2023-10-31T20:41:22Z</time>
      </trkpt>
      <trkpt lat="48.64546" lon="-3.93375">
        <ele>35</ele>
        <time>2023-10-31T20:42:59Z</time>
      </trkpt>
      <trkpt lat="48.64545" lon="-3.93485">
        <ele>34</ele>
        <time>2023-10-31T20:44:36Z</time>
      </trkpt>
      <trkpt lat="48.64546" lon="-3.93527">
        <ele>34</ele>
        <time>2023-10-31T20:45:13Z</time>
      </trkpt>
      <trkpt lat="48.64574" lon="-3.93521">
        <ele>36</ele>
        <time>2023-10-31T20:45:51Z</time>
      </trkpt>
      <trkpt lat="48.646" lon="-3.93526">
        <ele>37</ele>
        <time>2023-10-31T20:46:26Z</time>
      </trkpt>
      <trkpt lat="48.64638" lon="-3.93557">
        <ele>37</ele>
        <time>2023-10-31T20:47:23Z</time>
      </trkpt>
      <trkpt lat="48.64702" lon="-3.93608">
        <ele>38</ele>
        <time>2023-10-31T20:49:00Z</time>
      </trkpt>
      <trkpt lat="48.64765" lon="-3.93663">
        <ele>39</ele>
        <time>2023-10-31T20:50:37Z</time>
      </trkpt>
      <trkpt lat="48.64831" lon="-3.93708">
        <ele>39</ele>
        <time>2023-10-31T20:52:14Z</time>
      </trkpt>
      <trkpt lat="48.64896" lon="-3.93758">
        <ele>40</ele>
        <time>2023-10-31T20:53:51Z</time>
      </trkpt>
      <trkpt lat="48.64963" lon="-3.93803">
        <ele>39</ele>
        <time>2023-10-31T20:55:29Z</time>
      </trkpt>
      <trkpt lat="48.65028" lon="-3.93854">
        <ele>39</ele>
        <time>2023-10-31T20:57:06Z</time>
      </trkpt>
      <trkpt lat="48.65093" lon="-3.93902">
        <ele>40</ele>
        <time>2023-10-31T20:58:43Z</time>
      </trkpt>
      <trkpt lat="48.6511" lon="-3.9393">
        <ele>40</ele>
        <time>2023-10-31T20:59:16Z</time>
      </trkpt>
      <trkpt lat="48.65096" lon="-3.94011">
        <ele>40</ele>
        <time>2023-10-31T21:00:30Z</time>
      </trkpt>
      <trkpt lat="48.65066" lon="-3.94163">
        <ele>38</ele>
        <time>2023-10-31T21:02:50Z</time>
      </trkpt>
      <trkpt lat="48.65147" lon="-3.94133">
        <ele>37</ele>
        <time>2023-10-31T21:04:41Z</time>
      </trkpt>
      <trkpt lat="48.65218" lon="-3.94113">
        <ele>34</ele>
        <time>2023-10-31T21:06:18Z</time>
      </trkpt>
      <trkpt lat="48.65289" lon="-3.94086">
        <ele>28</ele>
        <time>2023-10-31T21:07:55Z</time>
      </trkpt>
      <trkpt lat="48.65362" lon="-3.94077">
        <ele>20</ele>
        <time>2023-10-31T21:09:33Z</time>
      </trkpt>
      <trkpt lat="48.654" lon="-3.93984">
        <ele>16</ele>
        <time>2023-10-31T21:11:10Z</time>
      </trkpt>
      <trkpt lat="48.65454" lon="-3.93912">
        <ele>13</ele>
        <time>2023-10-31T21:12:46Z</time>
      </trkpt>
      <trkpt lat="48.65521" lon="-3.93868">
        <ele>11</ele>
        <time>2023-10-31T21:14:23Z</time>
      </trkpt>
      <trkpt lat="48.65581" lon="-3.93806">
        <ele>10</ele>
        <time>2023-10-31T21:16:00Z</time>
      </trkpt>
      <trkpt lat="48.65681" lon="-3.93647">
        <ele>5</ele>
        <time>2023-10-31T21:19:14Z</time>
      </trkpt>
      <trkpt lat="48.65733" lon="-3.93571">
        <ele>3</ele>
        <time>2023-10-31T21:20:50Z</time>
      </trkpt>
      <trkpt lat="48.65736" lon="-3.93462">
        <ele>3</ele>
        <time>2023-10-31T21:22:26Z</time>
      </trkpt>
      <trkpt lat="48.65739" lon="-3.93352">
        <ele>3</ele>
        <time>2023-10-31T21:24:03Z</time>
      </trkpt>
      <trkpt lat="48.65749" lon="-3.93244">
        <ele>3</ele>
        <time>2023-10-31T21:25:39Z</time>
      </trkpt>
      <trkpt lat="48.65764" lon="-3.93136">
        <ele>3</ele>
        <time>2023-10-31T21:27:17Z</time>
      </trkpt>
      <trkpt lat="48.6578" lon="-3.93029">
        <ele>4</ele>
        <time>2023-10-31T21:28:53Z</time>
      </trkpt>
      <trkpt lat="48.65848" lon="-3.92992">
        <ele>3</ele>
        <time>2023-10-31T21:30:30Z</time>
      </trkpt>
      <trkpt lat="48.65896" lon="-3.92911">
        <ele>9</ele>
        <time>2023-10-31T21:32:06Z</time>
      </trkpt>
      <trkpt lat="48.65927" lon="-3.92812">
        <ele>18</ele>
        <time>2023-10-31T21:33:42Z</time>
      </trkpt>
      <trkpt lat="48.65939" lon="-3.92703">
        <ele>22</ele>
        <time>2023-10-31T21:35:20Z</time>
      </trkpt>
      <trkpt lat="48.65961" lon="-3.926">
        <ele>23</ele>
        <time>2023-10-31T21:36:55Z</time>
      </trkpt>
      <trkpt lat="48.65936" lon="-3.92497">
        <ele>29</ele>
        <time>2023-10-31T21:38:32Z</time>
      </trkpt>
      <trkpt lat="48.6588" lon="-3.92426">
        <ele>33</ele>
        <time>2023-10-31T21:40:09Z</time>
      </trkpt>
      <trkpt lat="48.65849" lon="-3.92326">
        <ele>37</ele>
        <time>2023-10-31T21:41:47Z</time>
      </trkpt>
      <trkpt lat="48.65811" lon="-3.92233">
        <ele>38</ele>
        <time>2023-10-31T21:43:23Z</time>
      </trkpt>
      <trkpt lat="48.65774" lon="-3.92138">
        <ele>39</ele>
        <time>2023-10-31T21:45:00Z</time>
      </trkpt>
      <trkpt lat="48.65734" lon="-3.92046">
        <ele>41</ele>
        <time>2023-10-31T21:46:37Z</time>
      </trkpt>
      <trkpt lat="48.65685" lon="-3.91965">
        <ele>42</ele>
        <time>2023-10-31T21:48:14Z</time>
      </trkpt>
      <trkpt lat="48.65625" lon="-3.91902">
        <ele>43</ele>
        <time>2023-10-31T21:49:52Z</time>
      </trkpt>
      <trkpt lat="48.65591" lon="-3.91806">
        <ele>46</ele>
        <time>2023-10-31T21:51:28Z</time>
      </trkpt>
      <trkpt lat="48.65578" lon="-3.91697">
        <ele>49</ele>
        <time>2023-10-31T21:53:05Z</time>
      </trkpt>
      <trkpt lat="48.6554" lon="-3.91604">
        <ele>50</ele>
        <time>2023-10-31T21:54:42Z</time>
      </trkpt>
      <trkpt lat="48.65489" lon="-3.91526">
        <ele>52</ele>
        <time>2023-10-31T21:56:18Z</time>
      </trkpt>
      <trkpt lat="48.65432" lon="-3.91457">
        <ele>53</ele>
        <time>2023-10-31T21:57:56Z</time>
      </trkpt>
      <trkpt lat="48.65372" lon="-3.91398">
        <ele>52</ele>
        <time>2023-10-31T21:59:31Z</time>
      </trkpt>
      <trkpt lat="48.65317" lon="-3.91324">
        <ele>51</ele>
        <time>2023-10-31T22:01:09Z</time>
      </trkpt>
      <trkpt lat="48.65249" lon="-3.91281">
        <ele>49</ele>
        <time>2023-10-31T22:02:48Z</time>
      </trkpt>
      <trkpt lat="48.65187" lon="-3.91227">
        <ele>48</ele>
        <time>2023-10-31T22:04:23Z</time>
      </trkpt>
      <trkpt lat="48.65179" lon="-3.91117">
        <ele>52</ele>
        <time>2023-10-31T22:06:01Z</time>
      </trkpt>
      <trkpt lat="48.65147" lon="-3.91018">
        <ele>55</ele>
        <time>2023-10-31T22:07:38Z</time>
      </trkpt>
      <trkpt lat="48.65102" lon="-3.90931">
        <ele>55</ele>
        <time>2023-10-31T22:09:15Z</time>
      </trkpt>
      <trkpt lat="48.65066" lon="-3.90835">
        <ele>56</ele>
        <time>2023-10-31T22:10:53Z</time>
      </trkpt>
      <trkpt lat="48.65026" lon="-3.90742">
        <ele>57</ele>
        <time>2023-10-31T22:12:31Z</time>
      </trkpt>
      <trkpt lat="48.65" lon="-3.90639">
        <ele>54</ele>
        <time>2023-10-31T22:14:08Z</time>
      </trkpt>
      <trkpt lat="48.65066" lon="-3.90594">
        <ele>56</ele>
        <time>2023-10-31T22:15:44Z</time>
      </trkpt>
      <trkpt lat="48.65138" lon="-3.90606">
        <ele>59</ele>
        <time>2023-10-31T22:17:21Z</time>
      </trkpt>
      <trkpt lat="48.65205" lon="-3.90647">
        <ele>60</ele>
        <time>2023-10-31T22:18:57Z</time>
      </trkpt>
      <trkpt lat="48.65268" lon="-3.90702">
        <ele>60</ele>
        <time>2023-10-31T22:20:35Z</time>
      </trkpt>
      <trkpt lat="48.65318" lon="-3.90622">
        <ele>59</ele>
        <time>2023-10-31T22:22:12Z</time>
      </trkpt>
      <trkpt lat="48.6528" lon="-3.90527">
        <ele>60</ele>
        <time>2023-10-31T22:23:50Z</time>
      </trkpt>
      <trkpt lat="48.65308" lon="-3.90426">
        <ele>55</ele>
        <time>2023-10-31T22:25:26Z</time>
      </trkpt>
      <trkpt lat="48.65321" lon="-3.90317">
        <ele>36</ele>
        <time>2023-10-31T22:27:04Z</time>
      </trkpt>
      <trkpt lat="48.6537" lon="-3.90237">
        <ele>16</ele>
        <time>2023-10-31T22:28:40Z</time>
      </trkpt>
      <trkpt lat="48.65406" lon="-3.90225">
        <ele>13</ele>
        <time>2023-10-31T22:29:29Z</time>
      </trkpt>
      <trkpt lat="48.6544" lon="-3.9024">
        <ele>13</ele>
        <time>2023-10-31T22:30:16Z</time>
      </trkpt>
    </trkseg>
  </trk>
</gpx>